Time;durP1;ratioP1;P1;durP2;ratioP2;P2;SDS_P1;SDS_P2;PMS_P1;PMS_P2;Temp;Humidity;BMP_temperature;BMP_pressure;BME280_temperature;BME280_humidity;BME280_pressure;Samples;Min_cycle;Max_cycle;Signal;HPM_P1;HPM_P2
2024/01/28 00:01:18;;;;;;;1999.90;999.90;;;;;;;1.49;75.79;97216.38;5116558;28;20485;-67
2024/01/28 00:03:45;;;;;;;1999.90;999.90;;;;;;;1.46;75.69;97221.50;5116656;28;20142;-67
2024/01/28 00:06:12;;;;;;;1999.90;999.90;;;;;;;1.35;76.32;97213.66;5116581;28;20100;-65
2024/01/28 00:08:39;;;;;;;1999.90;999.90;;;;;;;1.37;76.52;97219.72;5116548;28;20051;-68
2024/01/28 00:11:08;;;;;;;1999.90;999.90;;;;;;;1.32;76.92;97220.53;5116313;28;20462;-67
2024/01/28 00:13:35;;;;;;;1999.90;999.90;;;;;;;1.32;77.10;97223.09;5116275;28;20464;-67
2024/01/28 00:16:02;;;;;;;1999.90;999.90;;;;;;;1.33;76.79;97217.09;5116388;28;20424;-65
2024/01/28 00:18:30;;;;;;;1999.90;999.90;;;;;;;1.28;77.30;97229.03;5116413;28;20085;-67
2024/01/28 00:20:57;;;;;;;1999.90;999.90;;;;;;;1.32;77.07;97229.09;5115170;28;20043;-67
2024/01/28 00:23:24;;;;;;;1999.90;999.90;;;;;;;1.33;76.90;97232.56;5116045;28;20073;-67
2024/01/28 00:25:51;;;;;;;1999.90;999.90;;;;;;;1.32;76.63;97231.69;5116110;28;20058;-64
2024/01/28 00:28:20;;;;;;;1999.90;999.90;;;;;;;1.29;76.63;97234.22;5116324;28;20043;-67
2024/01/28 00:30:47;;;;;;;1999.90;999.90;;;;;;;1.23;76.65;97229.88;5115950;28;20558;-68
2024/01/28 00:33:14;;;;;;;1999.90;999.90;;;;;;;1.17;77.32;97231.53;5116093;28;20054;-66
2024/01/28 00:35:41;;;;;;;1999.90;999.90;;;;;;;1.18;77.36;97241.88;5115936;28;20130;-68
2024/01/28 00:38:08;;;;;;;1999.90;999.90;;;;;;;1.13;77.59;97239.22;5115943;28;20459;-67
2024/01/28 00:40:35;;;;;;;1999.90;999.90;;;;;;;1.05;78.17;97240.84;5115838;28;20058;-65
2024/01/28 00:43:03;;;;;;;1999.90;999.90;;;;;;;1.07;78.17;97235.72;5115796;28;20043;-65
2024/01/28 00:45:32;;;;;;;1999.90;999.90;;;;;;;1.10;78.20;97236.63;5115818;28;20097;-65
2024/01/28 00:47:59;;;;;;;1999.90;999.90;;;;;;;1.12;78.14;97234.06;5115710;28;20048;-64
2024/01/28 00:50:26;;;;;;;1999.90;999.90;;;;;;;1.12;78.30;97228.91;5115584;28;20485;-67
2024/01/28 00:52:53;;;;;;;1999.90;999.90;;;;;;;1.17;77.79;97224.66;5115594;28;20447;-65
2024/01/28 00:55:20;;;;;;;1999.90;999.90;;;;;;;1.18;77.77;97228.09;5115525;28;20573;-66
2024/01/28 00:57:47;;;;;;;1999.90;999.90;;;;;;;1.12;78.17;97229.75;5115550;28;20044;-68
2024/01/28 01:00:15;;;;;;;1999.90;999.90;;;;;;;1.12;78.55;97229.75;5115467;28;20046;-65
2024/01/28 01:02:44;;;;;;;1999.90;999.90;;;;;;;1.09;78.55;97232.28;5115409;28;20162;-64
2024/01/28 01:05:11;;;;;;;1999.90;999.90;;;;;;;1.13;78.44;97228.06;5097425;28;20040;-68
2024/01/28 01:07:38;;;;;;;1999.90;999.90;;;;;;;1.12;78.99;97221.19;5115325;28;20044;-66
2024/01/28 01:10:06;;;;;;;1999.90;999.90;;;;;;;1.02;79.45;97225.34;5115144;28;20062;-68
2024/01/28 01:12:33;;;;;;;1999.90;999.90;;;;;;;0.95;79.61;97214.13;5115344;28;20401;-68
2024/01/28 01:15:00;;;;;;;1999.90;999.90;;;;;;;0.87;80.42;97218.31;5114987;28;20451;-68
2024/01/28 01:17:28;;;;;;;1999.90;999.90;;;;;;;0.89;80.41;97214.06;5114925;28;20477;-66
2024/01/28 01:19:56;;;;;;;1999.90;999.90;;;;;;;0.86;79.98;97214.00;5115098;28;20096;-64
2024/01/28 01:22:23;;;;;;;1999.90;999.90;;;;;;;0.81;79.99;97226.84;5115065;28;20043;-68
2024/01/28 01:24:50;;;;;;;1999.90;999.90;;;;;;;0.83;80.12;97227.72;5115035;28;20054;-68
2024/01/28 01:27:17;;;;;;;1999.90;999.90;;;;;;;0.79;79.20;97231.13;5114936;28;20086;-65
2024/01/28 01:29:44;;;;;;;1999.90;999.90;;;;;;;0.79;79.46;97225.97;5114830;28;20083;-67
2024/01/28 01:32:11;;;;;;;1999.90;999.90;;;;;;;0.87;78.80;97234.66;5114629;28;20416;-65
2024/01/28 01:34:38;;;;;;;1999.90;999.90;;;;;;;0.91;78.38;97243.28;5114810;28;20121;-68
2024/01/28 01:37:07;;;;;;;1999.90;999.90;;;;;;;0.90;78.42;97240.69;5114697;28;20130;-65
2024/01/28 01:39:34;;;;;;;1999.90;999.90;;;;;;;0.90;78.56;97244.09;5114636;28;20536;-66
2024/01/28 01:42:01;;;;;;;1999.90;999.90;;;;;;;0.95;78.14;97250.19;5114683;28;20050;-66
2024/01/28 01:44:28;;;;;;;1999.90;999.90;;;;;;;0.98;77.59;97250.25;5114463;28;20043;-65
2024/01/28 01:46:55;;;;;;;1999.90;999.90;;;;;;;1.04;77.05;97245.97;5114805;28;20130;-66
2024/01/28 01:49:23;;;;;;;1999.90;999.90;;;;;;;1.05;76.88;97248.59;5114409;28;20047;-64
2024/01/28 01:51:50;;;;;;;1999.90;999.90;;;;;;;1.04;76.59;97256.28;5114471;28;20101;-67
2024/01/28 01:54:19;;;;;;;1999.90;999.90;;;;;;;0.99;76.25;97256.25;5114078;28;20134;-64
2024/01/28 01:56:46;;;;;;;1999.90;999.90;;;;;;;0.96;75.92;97258.81;5114347;28;20437;-65
2024/01/28 01:59:13;;;;;;;1999.90;999.90;;;;;;;0.97;75.78;97260.53;5114307;28;20062;-67
2024/01/28 02:01:41;;;;;;;1999.90;999.90;;;;;;;0.90;75.51;97245.84;5114456;28;20508;-64
2024/01/28 02:04:08;;;;;;;1999.90;999.90;;;;;;;0.91;75.18;97256.16;5114222;28;20094;-65
2024/01/28 02:06:34;;;;;;;1999.90;999.90;;;;;;;0.79;74.44;97262.03;5114181;28;20485;-64
2024/01/28 02:09:02;;;;;;;1999.90;999.90;;;;;;;0.79;74.74;97256.00;5113937;28;20043;-68
2024/01/28 02:11:32;;;;;;;1999.90;999.90;;;;;;;0.65;74.54;97266.13;5114138;28;20050;-67
2024/01/28 02:13:59;;;;;;;1999.90;999.90;;;;;;;0.47;74.32;97262.47;5114292;28;20039;-66
2024/01/28 02:16:27;;;;;;;1999.90;999.90;;;;;;;0.36;74.51;97258.03;5114009;28;20082;-64
2024/01/28 02:18:54;;;;;;;1999.90;999.90;;;;;;;0.21;74.45;97276.69;5113923;28;20499;-65
2024/01/28 02:21:21;;;;;;;1999.90;999.90;;;;;;;0.15;75.12;97263.72;5113940;28;20493;-67
2024/01/28 02:23:49;;;;;;;1999.90;999.90;;;;;;;0.17;75.30;97274.03;5113872;28;20047;-66
2024/01/28 02:26:16;;;;;;;1999.90;999.90;;;;;;;0.07;75.34;97268.78;5113800;28;20444;-66
2024/01/28 02:28:43;;;;;;;1999.90;999.90;;;;;;;-0.03;75.40;97279.78;5113722;28;20058;-66
2024/01/28 02:31:10;;;;;;;1999.90;999.90;;;;;;;-0.20;75.56;97292.34;5113544;28;20408;-67
2024/01/28 02:33:37;;;;;;;1999.90;999.90;;;;;;;-0.27;76.16;97292.22;5113723;28;20097;-65
2024/01/28 02:36:04;;;;;;;1999.90;999.90;;;;;;;-0.28;76.39;97289.63;5113569;28;20405;-66
2024/01/28 02:38:31;;;;;;;1999.90;999.90;;;;;;;-0.27;76.33;97297.38;5113891;28;20477;-66
2024/01/28 02:41:00;;;;;;;1999.90;999.90;;;;;;;-0.33;76.89;97296.41;5113760;28;20134;-64
2024/01/28 02:43:27;;;;;;;1999.90;999.90;;;;;;;-0.38;77.35;97296.34;5113050;28;20054;-66
2024/01/28 02:45:54;;;;;;;1999.90;999.90;;;;;;;-0.35;77.24;97313.50;5113515;28;20527;-65
2024/01/28 02:48:21;;;;;;;1999.90;999.90;;;;;;;-0.34;77.14;97299.81;5113545;28;20472;-63
2024/01/28 02:50:48;;;;;;;1999.90;999.90;;;;;;;-0.41;76.47;97310.00;5113394;28;20115;-64
2024/01/28 02:53:15;;;;;;;1999.90;999.90;;;;;;;-0.51;76.55;97305.53;5113253;28;20138;-65
2024/01/28 02:55:42;;;;;;;1999.90;999.90;;;;;;;-0.55;76.64;97296.91;5113576;28;20040;-66
2024/01/28 02:58:11;;;;;;;1999.90;999.90;;;;;;;-0.55;76.72;97304.59;5113573;28;20131;-66
2024/01/28 03:00:38;;;;;;;1999.90;999.90;;;;;;;-0.66;77.02;97304.41;5113565;28;20100;-67
2024/01/28 03:03:05;;;;;;;1999.90;999.90;;;;;;;-0.67;77.33;97299.22;5113404;28;20044;-66
2024/01/28 03:05:32;;;;;;;1999.90;999.90;;;;;;;-0.61;77.76;97304.50;5113520;28;20142;-66
2024/01/28 03:07:59;;;;;;;1999.90;999.90;;;;;;;-0.55;78.05;97296.00;5113457;28;20043;-66
2024/01/28 03:10:26;;;;;;;1999.90;999.90;;;;;;;-0.52;78.29;97301.22;5113225;28;20062;-68
2024/01/28 03:12:53;;;;;;;1999.90;999.90;;;;;;;-0.53;78.09;97300.38;5113269;28;20501;-65
2024/01/28 03:15:22;;;;;;;1999.90;999.90;;;;;;;-0.50;77.79;97304.69;5113273;28;20128;-64
2024/01/28 03:17:49;;;;;;;1999.90;999.90;;;;;;;-0.45;77.33;97300.47;5113316;28;20447;-65
2024/01/28 03:20:18;;;;;;;1999.90;999.90;;;;;;;-0.41;76.58;97306.56;5113229;28;20048;-65
2024/01/28 03:22:45;;;;;;;1999.90;999.90;;;;;;;-0.52;76.98;97304.66;5113127;28;20049;-64
2024/01/28 03:25:12;;;;;;;1999.90;999.90;;;;;;;-0.44;76.66;97312.53;5113348;28;20043;-65
2024/01/28 03:27:39;;;;;;;1999.90;999.90;;;;;;;-0.33;76.08;97317.00;5113153;28;20058;-66
2024/01/28 03:30:08;;;;;;;1999.90;999.90;;;;;;;-0.23;75.53;97315.44;5113151;28;20048;-66
2024/01/28 03:32:37;;;;;;;1999.90;999.90;;;;;;;-0.11;74.54;97317.34;5113102;28;20048;-67
2024/01/28 03:35:04;;;;;;;1999.90;999.90;;;;;;;0.01;73.71;97317.56;5113135;28;20077;-63
2024/01/28 03:37:32;;;;;;;1999.90;999.90;;;;;;;0.13;73.42;97327.19;5113075;28;20093;-65
2024/01/28 03:39:59;;;;;;;1999.90;999.90;;;;;;;0.21;72.37;97311.88;5113083;28;20051;-67
2024/01/28 03:42:26;;;;;;;1999.90;999.90;;;;;;;0.34;71.87;97323.22;5113067;28;20408;-65
2024/01/28 03:44:53;;;;;;;1999.90;999.90;;;;;;;0.43;71.70;97314.75;5113079;28;20147;-66
2024/01/28 03:47:20;;;;;;;1999.90;999.90;;;;;;;0.51;70.62;97315.72;5113030;28;20043;-63
2024/01/28 03:49:47;;;;;;;1999.90;999.90;;;;;;;0.56;69.54;97323.53;5113043;28;20052;-64
2024/01/28 03:52:15;;;;;;;1999.90;999.90;;;;;;;0.68;68.94;97318.56;5112708;28;20077;-64
2024/01/28 03:54:43;;;;;;;1999.90;999.90;;;;;;;0.77;68.53;97329.81;5112771;28;20485;-66
2024/01/28 03:57:10;;;;;;;1999.90;999.90;;;;;;;0.81;68.43;97329.88;5116788;28;20054;-64
2024/01/28 03:59:39;;;;;;;1999.90;999.90;;;;;;;0.87;68.26;97337.69;5116775;28;20070;-67
2024/01/28 04:02:07;;;;;;;1999.90;999.90;;;;;;;0.89;67.02;97340.31;5098398;28;20048;-64
2024/01/28 04:04:34;;;;;;;1999.90;999.90;;;;;;;0.95;67.10;97349.81;5116495;28;20079;-64
2024/01/28 04:07:03;;;;;;;1999.90;999.90;;;;;;;0.96;66.40;97344.69;5098579;28;20123;-65
2024/01/28 04:09:30;;;;;;;1999.90;999.90;;;;;;;0.94;66.33;97343.81;5116460;28;20052;-67
2024/01/28 04:11:57;;;;;;;1999.90;999.90;;;;;;;0.99;66.43;97352.47;5116364;28;20047;-66
2024/01/28 04:14:24;;;;;;;1999.90;999.90;;;;;;;0.98;65.91;97355.91;5116501;28;20047;-66
2024/01/28 04:16:51;;;;;;;1999.90;999.90;;;;;;;1.03;66.07;97345.66;5116209;28;20533;-64
2024/01/28 04:19:18;;;;;;;1999.90;999.90;;;;;;;1.05;65.72;97350.81;5116284;28;20052;-66
2024/01/28 04:21:45;;;;;;;1999.90;999.90;;;;;;;1.04;65.60;97347.38;5116188;28;20055;-67
2024/01/28 04:24:14;;;;;;;1999.90;999.90;;;;;;;1.08;65.62;97353.44;5116258;28;20072;-64
2024/01/28 04:26:41;;;;;;;1999.90;999.90;;;;;;;1.11;65.26;97356.03;5116350;28;20083;-64
2024/01/28 04:29:08;;;;;;;1999.90;999.90;;;;;;;1.11;65.19;97361.19;5116238;28;20051;-65
2024/01/28 04:31:35;;;;;;;1999.90;999.90;;;;;;;1.09;64.90;97363.75;5115866;28;20486;-62
2024/01/28 04:34:02;;;;;;;1999.90;999.90;;;;;;;1.13;64.13;97362.97;5115995;28;20051;-64
2024/01/28 04:36:29;;;;;;;1999.90;999.90;;;;;;;1.17;64.46;97375.88;5115900;28;20134;-67
2024/01/28 04:38:56;;;;;;;1999.90;999.90;;;;;;;1.17;64.43;97369.00;5115874;28;20047;-64
2024/01/28 04:41:24;;;;;;;1999.90;999.90;;;;;;;1.19;63.96;97375.06;5115874;28;20047;-66
2024/01/28 04:43:51;;;;;;;1999.90;999.90;;;;;;;1.21;64.22;97375.91;5115819;28;20046;-64
2024/01/28 04:46:18;;;;;;;1999.90;999.90;;;;;;;1.20;64.43;97376.78;5115825;28;20039;-64
2024/01/28 04:48:46;;;;;;;1999.90;999.90;;;;;;;1.24;63.88;97375.13;5115860;28;20069;-65
2024/01/28 04:51:13;;;;;;;1999.90;999.90;;;;;;;1.28;63.83;97376.88;5115570;28;20101;-64
2024/01/28 04:53:40;;;;;;;1999.90;999.90;;;;;;;1.26;64.07;97382.00;5115420;28;20083;-63
2024/01/28 04:56:07;;;;;;;1999.90;999.90;;;;;;;1.26;64.78;97381.13;5115614;28;20039;-66
2024/01/28 04:58:36;;;;;;;1999.90;999.90;;;;;;;1.26;64.33;97391.44;5115560;28;20460;-66
2024/01/28 05:01:03;;;;;;;1999.90;999.90;;;;;;;1.25;64.11;97400.91;5115586;28;20480;-66
2024/01/28 05:03:30;;;;;;;1999.90;999.90;;;;;;;1.31;64.04;97402.72;5115499;28;20047;-64
2024/01/28 05:05:58;;;;;;;1999.90;999.90;;;;;;;1.29;64.49;97406.97;5114768;28;20490;-65
2024/01/28 05:08:25;;;;;;;1999.90;999.90;;;;;;;1.29;64.20;97421.59;5115360;28;20503;-64
2024/01/28 05:10:53;;;;;;;1999.90;999.90;;;;;;;1.30;64.45;97426.78;5115065;28;20051;-67
2024/01/28 05:13:20;;;;;;;1999.90;999.90;;;;;;;1.25;64.64;97421.53;5115261;28;20405;-65
2024/01/28 05:15:50;;;;;;;1999.90;999.90;;;;;;;1.28;64.62;97422.41;5115179;28;20065;-65
2024/01/28 05:18:17;;;;;;;1999.90;999.90;;;;;;;1.28;64.58;97423.28;5115200;28;20044;-65
2024/01/28 05:20:45;;;;;;;1999.90;999.90;;;;;;;1.28;64.76;97425.00;5115116;28;20047;-66
2024/01/28 05:23:12;;;;;;;1999.90;999.90;;;;;;;1.26;65.11;97422.38;5115109;28;20044;-68
2024/01/28 05:25:39;;;;;;;1999.90;999.90;;;;;;;1.30;64.90;97423.31;5114948;28;20047;-63
2024/01/28 05:28:08;;;;;;;1999.90;999.90;;;;;;;1.29;64.88;97427.59;5114996;28;20058;-67
2024/01/28 05:30:36;;;;;;;1999.90;999.90;;;;;;;1.31;64.90;97427.59;5114778;28;20377;-63
2024/01/28 05:33:05;;;;;;;1999.90;999.90;;;;;;;1.30;64.77;97431.03;5114889;28;20043;-64
2024/01/28 05:35:33;;;;;;;1999.90;999.90;;;;;;;1.27;64.88;97434.47;5114857;28;20043;-66
2024/01/28 05:38:00;;;;;;;1999.90;999.90;;;;;;;1.27;64.75;97439.63;5114820;28;20287;-68
2024/01/28 05:40:27;;;;;;;1999.90;999.90;;;;;;;1.31;64.51;97437.94;5114687;28;20043;-67
2024/01/28 05:42:55;;;;;;;1999.90;999.90;;;;;;;1.30;64.64;97437.09;5114580;28;20126;-66
2024/01/28 05:45:22;;;;;;;1999.90;999.90;;;;;;;1.36;64.02;97439.72;5114636;28;20481;-65
2024/01/28 05:47:49;;;;;;;1999.90;999.90;;;;;;;1.39;64.09;97447.50;5114600;28;20044;-64
2024/01/28 05:50:18;;;;;;;1999.90;999.90;;;;;;;1.32;64.27;97448.25;5114723;28;20051;-67
2024/01/28 05:52:45;;;;;;;1999.90;999.90;;;;;;;1.35;64.71;97456.03;5114464;28;20058;-66
2024/01/28 05:55:12;;;;;;;1999.90;999.90;;;;;;;1.29;64.82;97465.41;5114181;28;20050;-68
2024/01/28 05:57:39;;;;;;;1999.90;999.90;;;;;;;1.33;64.51;97464.59;5114574;28;20051;-65
2024/01/28 06:00:08;;;;;;;1999.90;999.90;;;;;;;1.30;64.89;97468.03;5114612;28;20043;-66
2024/01/28 06:02:35;;;;;;;1999.90;999.90;;;;;;;1.37;64.55;97480.16;5114290;28;20047;-66
2024/01/28 06:05:03;;;;;;;1999.90;999.90;;;;;;;1.46;64.46;97487.13;5114167;28;20487;-64
2024/01/28 06:07:32;;;;;;;1999.90;999.90;;;;;;;1.53;64.42;97484.66;5114449;28;20547;-65
2024/01/28 06:09:59;;;;;;;1999.90;999.90;;;;;;;1.58;64.08;97478.69;5114216;28;20096;-64
2024/01/28 06:12:27;;;;;;;1999.90;999.90;;;;;;;1.63;63.30;97484.75;5113990;28;20134;-68
2024/01/28 06:14:54;;;;;;;1999.90;999.90;;;;;;;1.57;63.82;97486.41;5114110;28;20047;-65
2024/01/28 06:17:22;;;;;;;1999.90;999.90;;;;;;;1.58;64.07;97483.84;5113702;28;20512;-64
2024/01/28 06:19:49;;;;;;;1999.90;999.90;;;;;;;1.63;63.39;97486.50;5113592;28;20054;-67
2024/01/28 06:22:17;;;;;;;1999.90;999.90;;;;;;;1.71;63.55;97484.88;5114032;28;20108;-66
2024/01/28 06:24:46;;;;;;;1999.90;999.90;;;;;;;1.85;63.29;97490.22;5113867;28;20098;-62
2024/01/28 06:27:14;;;;;;;1999.90;999.90;;;;;;;1.96;63.32;97489.47;5113822;28;20052;-65
2024/01/28 06:29:41;;;;;;;1999.90;999.90;;;;;;;2.08;62.93;97486.16;5113842;28;20112;-67
2024/01/28 06:32:10;;;;;;;1999.90;999.90;;;;;;;2.13;63.15;97487.94;5113634;28;20159;-64
2024/01/28 06:34:37;;;;;;;1999.90;999.90;;;;;;;2.22;63.03;97478.53;5113775;28;20127;-67
2024/01/28 06:37:05;;;;;;;1999.90;999.90;;;;;;;2.23;63.43;97473.41;5113674;28;20082;-63
2024/01/28 06:39:32;;;;;;;1999.90;999.90;;;;;;;2.36;63.04;97482.16;5113724;28;20044;-67
2024/01/28 06:42:01;;;;;;;1999.90;999.90;;;;;;;2.46;62.56;97479.63;5113674;28;20043;-67
2024/01/28 06:44:29;;;;;;;1999.90;999.90;;;;;;;2.67;63.48;97467.78;5113604;28;20044;-64
2024/01/28 06:46:56;;;;;;;1999.90;999.90;;;;;;;3.14;60.45;97467.28;5113626;28;20047;-64
2024/01/28 06:49:24;;;;;;;1999.90;999.90;;;;;;;3.40;59.79;97482.06;5113523;28;20090;-64
2024/01/28 06:51:52;;;;;;;1999.90;999.90;;;;;;;3.48;59.28;97473.47;5113411;28;20486;-67
2024/01/28 06:54:21;;;;;;;1999.90;999.90;;;;;;;3.58;58.36;97472.66;5113056;28;20405;-67
2024/01/28 06:56:49;;;;;;;1999.90;999.90;;;;;;;3.67;56.75;97479.59;5113465;28;20138;-66
2024/01/28 06:59:19;;;;;;;1999.90;999.90;;;;;;;3.74;55.98;97465.88;5113408;28;20423;-67
2024/01/28 07:01:46;;;;;;;1999.90;999.90;;;;;;;3.72;56.70;97464.97;5113512;28;20052;-66
2024/01/28 07:04:14;;;;;;;1999.90;999.90;;;;;;;3.59;56.49;97463.19;5113369;28;20047;-66
2024/01/28 07:06:41;;;;;;;1999.90;999.90;;;;;;;3.62;57.00;97466.69;5113361;28;20062;-66
2024/01/28 07:09:09;;;;;;;1999.90;999.90;;;;;;;3.59;56.50;97464.06;5113259;28;20052;-64
2024/01/28 07:11:36;;;;;;;1999.90;999.90;;;;;;;3.59;57.59;97465.78;5113278;28;20116;-64
2024/01/28 07:14:04;;;;;;;1999.90;999.90;;;;;;;3.58;57.78;97479.59;5113219;28;20044;-68
2024/01/28 07:16:34;;;;;;;1999.90;999.90;;;;;;;3.78;55.05;97472.78;5113269;28;20077;-64
2024/01/28 07:19:03;;;;;;;1999.90;999.90;;;;;;;4.36;53.43;97474.69;5113368;28;20077;-65
2024/01/28 07:21:31;;;;;;;1999.90;999.90;;;;;;;4.62;50.66;97468.66;5095125;28;20123;-67
2024/01/28 07:23:59;;;;;;;1999.90;999.90;;;;;;;4.63;50.42;97481.59;5113242;28;20052;-64
2024/01/28 07:26:26;;;;;;;1999.90;999.90;;;;;;;4.51;50.44;97486.75;5113264;28;20396;-67
2024/01/28 07:28:54;;;;;;;1999.90;999.90;;;;;;;4.39;50.76;97485.91;5113415;28;20086;-65
2024/01/28 07:31:22;;;;;;;1999.90;999.90;;;;;;;5.30;50.68;97485.91;5117300;28;20044;-63
2024/01/28 07:33:52;;;;;;;1999.90;999.90;;;;;;;6.80;46.58;97483.50;5117216;28;20047;-67
2024/01/28 07:36:21;;;;;;;1999.90;999.90;;;;;;;7.97;44.10;97490.16;5117221;28;20048;-68
2024/01/28 07:38:52;;;;;;;1999.90;999.90;;;;;;;9.23;40.55;97495.31;5117060;28;20379;-66
2024/01/28 07:41:23;;;;;;;1999.90;999.90;;;;;;;10.10;38.52;97492.81;5116971;28;20048;-66
2024/01/28 07:43:50;;;;;;;1999.90;999.90;;;;;;;10.41;38.91;97495.66;5117001;28;20050;-66
2024/01/28 07:46:19;;;;;;;1999.90;999.90;;;;;;;10.81;37.06;97496.53;5117014;28;20054;-68
2024/01/28 07:48:47;;;;;;;1999.90;999.90;;;;;;;11.12;36.41;97494.03;5116959;28;20048;-66
2024/01/28 07:51:16;;;;;;;1999.90;999.90;;;;;;;11.78;35.52;97497.56;5116795;28;20128;-63
2024/01/28 07:53:44;;;;;;;1999.90;999.90;;;;;;;12.59;34.14;97476.03;5116560;28;20142;-67
2024/01/28 07:56:12;;;;;;;1999.90;999.90;;;;;;;12.70;33.54;97480.94;5116703;28;20100;-66
2024/01/28 07:58:40;;;;;;;1999.90;999.90;;;;;;;13.55;33.09;97485.19;5116732;28;20044;-65
2024/01/28 08:01:10;;;;;;;1999.90;999.90;;;;;;;14.47;30.96;97499.38;5116640;28;20139;-65
2024/01/28 08:03:38;;;;;;;1999.90;999.90;;;;;;;14.50;30.74;97505.41;5116736;28;20063;-67
2024/01/28 08:06:07;;;;;;;1999.90;999.90;;;;;;;15.21;29.57;97505.31;5116929;28;20132;-64
2024/01/28 08:08:37;;;;;;;1999.90;999.90;;;;;;;15.62;29.39;97518.50;5116616;28;20069;-68
2024/01/28 08:11:08;;;;;;;1999.90;999.90;;;;;;;15.68;29.27;97522.66;5116390;28;20052;-66
2024/01/28 08:13:37;;;;;;;1999.90;999.90;;;;;;;16.94;27.97;97532.00;5116466;28;20043;-64
2024/01/28 08:16:05;;;;;;;1999.90;999.90;;;;;;;16.97;27.13;97538.91;5116565;28;20051;-66
2024/01/28 08:18:33;;;;;;;1999.90;999.90;;;;;;;17.11;26.84;97531.22;5116231;28;20054;-67
2024/01/28 08:21:00;;;;;;;1999.90;999.90;;;;;;;17.23;27.05;97542.13;5116234;28;20047;-66
2024/01/28 08:23:29;;;;;;;1999.90;999.90;;;;;;;17.11;26.45;97549.72;5116197;28;20101;-63
2024/01/28 08:25:59;;;;;;;1999.90;999.90;;;;;;;15.42;28.63;97545.75;5116155;28;20059;-63
2024/01/28 08:28:26;;;;;;;1999.90;999.90;;;;;;;15.27;29.11;97544.59;5098212;28;20058;-68
2024/01/28 08:30:54;;;;;;;1999.90;999.90;;;;;;;14.85;29.69;97554.16;5116068;28;20100;-65
2024/01/28 08:33:22;;;;;;;1999.90;999.90;;;;;;;14.90;30.72;97546.94;5116013;28;20490;-64
2024/01/28 08:35:49;;;;;;;1999.90;999.90;;;;;;;14.89;29.47;97550.47;5116029;28;20092;-65
2024/01/28 08:38:17;;;;;;;1999.90;999.90;;;;;;;14.45;30.02;97543.34;5115969;28;20078;-64
2024/01/28 08:40:45;;;;;;;1999.90;999.90;;;;;;;13.75;32.21;97544.94;5115190;28;20048;-65
2024/01/28 08:43:15;;;;;;;1999.90;999.90;;;;;;;13.30;32.59;97551.66;5115759;28;20086;-64
2024/01/28 08:45:43;;;;;;;1999.90;999.90;;;;;;;12.81;32.96;97551.47;5115935;28;20043;-67
2024/01/28 08:48:11;;;;;;;1999.90;999.90;;;;;;;12.62;33.12;97552.88;5115827;28;20558;-66
2024/01/28 08:50:39;;;;;;;1999.90;999.90;;;;;;;12.65;33.45;97557.22;5115730;28;20505;-64
2024/01/28 08:53:08;;;;;;;1999.90;999.90;;;;;;;11.98;34.31;97553.84;5115504;28;20048;-67
2024/01/28 08:55:38;;;;;;;1999.90;999.90;;;;;;;11.10;35.29;97563.03;5115200;28;20544;-67
2024/01/28 08:58:06;;;;;;;1999.90;999.90;;;;;;;10.71;36.00;97563.91;5115516;28;20043;-67
2024/01/28 09:00:37;;;;;;;1999.90;999.90;;;;;;;10.60;36.74;97561.53;5115415;28;20386;-64
2024/01/28 09:03:06;;;;;;;1999.90;999.90;;;;;;;10.28;37.68;97569.13;5115751;28;20048;-67
2024/01/28 09:05:34;;;;;;;1999.90;999.90;;;;;;;10.14;37.67;97564.19;5097534;28;20464;-67
2024/01/28 09:08:03;;;;;;;1999.90;999.90;;;;;;;10.14;38.51;97568.56;5115363;28;20130;-67
2024/01/28 09:10:30;;;;;;;1999.90;999.90;;;;;;;9.61;38.80;97567.78;5115363;28;20065;-64
2024/01/28 09:12:58;;;;;;;1999.90;999.90;;;;;;;9.53;38.62;97574.88;5115243;28;20047;-68
2024/01/28 09:15:26;;;;;;;1999.90;999.90;;;;;;;9.35;39.52;97569.97;5115200;28;20070;-63
2024/01/28 09:17:58;;;;;;;1999.90;999.90;;;;;;;9.43;39.43;97564.63;5115246;28;20039;-66
2024/01/28 09:20:26;;;;;;;1999.90;999.90;;;;;;;9.37;40.14;97556.00;5115203;28;20054;-67
2024/01/28 09:22:54;;;;;;;1999.90;999.90;;;;;;;9.40;40.60;97554.22;5115350;28;20051;-65
2024/01/28 09:25:22;;;;;;;1999.90;999.90;;;;;;;9.44;39.23;97574.16;5115157;28;20056;-65
2024/01/28 09:27:52;;;;;;;1999.90;999.90;;;;;;;9.28;38.39;97564.84;5114957;28;20101;-67
2024/01/28 09:30:19;;;;;;;1999.90;999.90;;;;;;;8.74;39.28;97564.81;5114949;28;20478;-65
2024/01/28 09:32:48;;;;;;;1999.90;999.90;;;;;;;8.56;40.68;97569.41;5114763;28;20055;-62
2024/01/28 09:35:17;;;;;;;1999.90;999.90;;;;;;;8.32;39.53;97553.16;5115021;28;20451;-68
2024/01/28 09:37:44;;;;;;;1999.90;999.90;;;;;;;8.33;40.42;97567.03;5114843;28;20046;-67
2024/01/28 09:40:13;;;;;;;1999.90;999.90;;;;;;;8.48;39.85;97560.75;5114809;28;20043;-68
2024/01/28 09:42:48;;;;;;;1999.90;999.90;;;;;;;8.63;39.24;97557.13;5114612;28;20058;-64
2024/01/28 09:45:20;;;;;;;1999.90;999.90;;;;;;;8.43;39.41;97562.59;5114686;28;20097;-67
2024/01/28 09:47:52;;;;;;;1999.90;999.90;;;;;;;8.49;38.63;97565.09;5114643;28;20040;-64
2024/01/28 09:50:21;;;;;;;1999.90;999.90;;;;;;;8.42;38.41;97553.00;5114540;28;20104;-68
2024/01/28 09:52:49;;;;;;;1999.90;999.90;;;;;;;8.57;37.73;97558.06;5114321;28;20056;-66
2024/01/28 09:55:16;;;;;;;1999.90;999.90;;;;;;;8.46;37.96;97567.75;5114325;28;20139;-62
2024/01/28 09:57:51;;;;;;;1999.90;999.90;;;;;;;8.41;38.05;97562.59;5114365;28;20500;-65
2024/01/28 10:00:22;;;;;;;1999.90;999.90;;;;;;;8.34;37.80;97563.56;5114712;28;20063;-67
2024/01/28 10:02:49;;;;;;;1999.90;999.90;;;;;;;8.44;38.29;97557.34;5114434;28;20048;-66
2024/01/28 10:05:16;;;;;;;1999.90;999.90;;;;;;;8.52;37.08;97553.78;5114419;28;20082;-62
2024/01/28 10:07:50;;;;;;;1999.90;999.90;;;;;;;8.44;38.55;97549.53;5114313;28;20569;-66
2024/01/28 10:10:19;;;;;;;1999.90;999.90;;;;;;;8.55;36.72;97545.94;5114196;28;20058;-64
2024/01/28 10:12:49;;;;;;;1999.90;999.90;;;;;;;8.61;37.79;97555.41;5114134;28;20051;-64
2024/01/28 10:15:17;;;;;;;1999.90;999.90;;;;;;;8.63;36.92;97557.13;5114153;28;20044;-64
2024/01/28 10:17:47;;;;;;;1999.90;999.90;;;;;;;8.60;37.21;97554.53;5114498;28;20124;-63
2024/01/28 10:20:16;;;;;;;1999.90;999.90;;;;;;;8.66;37.61;97551.84;5114102;28;20429;-64
2024/01/28 10:22:48;;;;;;;1999.90;999.90;;;;;;;8.76;36.50;97554.34;5113912;28;20040;-65
2024/01/28 10:25:17;;;;;;;1999.90;999.90;;;;;;;8.42;36.97;97559.09;5113908;28;20054;-66
2024/01/28 10:27:45;;;;;;;1999.90;999.90;;;;;;;8.43;36.63;97553.00;5113974;28;20131;-66
2024/01/28 10:30:20;;;;;;;1999.90;999.90;;;;;;;8.42;37.19;97550.41;5096001;28;20053;-63
2024/01/28 10:32:48;;;;;;;1999.90;999.90;;;;;;;8.09;37.59;97556.03;5114037;28;20052;-64
2024/01/28 10:35:16;;;;;;;1999.90;999.90;;;;;;;7.52;37.19;97554.88;5113729;28;20048;-67
2024/01/28 10:37:52;;;;;;;1999.90;999.90;;;;;;;7.28;38.79;97547.28;5113705;28;20043;-65
2024/01/28 10:40:20;;;;;;;1999.90;999.90;;;;;;;7.28;39.83;97549.88;5113829;28;20501;-66
2024/01/28 10:42:51;;;;;;;1999.90;999.90;;;;;;;7.56;39.75;97554.84;5113636;28;20101;-65
2024/01/28 10:45:20;;;;;;;1999.90;999.90;;;;;;;7.62;38.10;97563.47;5113690;28;20048;-65
2024/01/28 10:47:53;;;;;;;1999.90;999.90;;;;;;;7.57;38.69;97553.97;5113570;28;20048;-68
2024/01/28 10:50:23;;;;;;;1999.90;999.90;;;;;;;7.76;38.53;97545.97;5113761;28;20048;-64
2024/01/28 10:52:56;;;;;;;1999.90;999.90;;;;;;;7.86;38.26;97554.56;5113721;28;20070;-62
2024/01/28 10:55:29;;;;;;;1999.90;999.90;;;;;;;8.03;38.23;97551.75;5113751;28;20124;-67
2024/01/28 10:57:57;;;;;;;1999.90;999.90;;;;;;;8.05;37.85;97544.78;5113403;28;20481;-66
2024/01/28 11:00:26;;;;;;;1999.90;999.90;;;;;;;8.08;38.48;97552.56;5113585;28;20079;-65
2024/01/28 11:02:56;;;;;;;1999.90;999.90;;;;;;;7.97;39.96;97555.28;5113470;28;20485;-67